Time;durP1;ratioP1;P1;durP2;ratioP2;P2;SDS_P1;SDS_P2;PMS_P1;PMS_P2;Temp;Humidity;BMP_temperature;BMP_pressure;BME280_temperature;BME280_humidity;BME280_pressure;Samples;Min_cycle;Max_cycle;Signal;HPM_P1;HPM_P2
2022/07/20 00:00:01;;;;;;;4.27;2.00;;;;;;;22.94;47.52;100018.28;5114303;28;20196;-70
2022/07/20 00:02:28;;;;;;;3.13;2.00;;;;;;;22.90;47.42;100011.75;5114326;28;20191;-71
2022/07/20 00:04:55;;;;;;;4.20;1.80;;;;;;;22.93;46.80;100022.09;5114423;28;20198;-71
2022/07/20 00:07:21;;;;;;;3.43;1.87;;;;;;;22.93;46.85;100019.38;5114418;28;20197;-70
2022/07/20 00:12:34;;;;;;;2.50;2.23;;;;;;;22.90;48.16;100032.63;5114367;28;20187;-70
2022/07/20 00:15:00;;;;;;;2.40;2.00;;;;;;;22.82;48.17;100039.34;5113890;28;20655;-70
2022/07/20 00:17:27;;;;;;;3.67;2.20;;;;;;;22.81;48.49;100037.72;5114278;28;20326;-70
2022/07/20 00:19:54;;;;;;;2.47;2.27;;;;;;;22.74;48.72;100047.97;5114365;28;20252;-71
2022/07/20 00:22:20;;;;;;;2.97;1.73;;;;;;;22.62;48.88;100044.63;5113831;28;20193;-70
2022/07/20 00:24:47;;;;;;;3.27;1.93;;;;;;;22.58;49.03;100043.53;5114146;28;20194;-70
2022/07/20 00:27:14;;;;;;;1.60;1.50;;;;;;;22.60;49.14;100041.41;5113351;28;20608;-70
2022/07/20 00:29:42;;;;;;;1.50;1.40;;;;;;;22.56;48.97;100051.13;5114203;28;20216;-70
2022/07/20 00:32:09;;;;;;;2.17;1.67;;;;;;;22.40;49.08;100043.09;5114220;28;20194;-70
2022/07/20 00:34:35;;;;;;;2.17;1.20;;;;;;;22.33;49.67;100046.03;5113996;28;20191;-71
2022/07/20 00:37:02;;;;;;;3.57;1.80;;;;;;;22.32;49.76;100055.22;5113284;28;20244;-70
2022/07/20 00:39:29;;;;;;;2.63;1.30;;;;;;;22.35;49.83;100043.88;5113508;28;20202;-70
2022/07/20 00:41:55;;;;;;;2.67;1.50;;;;;;;22.32;50.73;100049.81;5113518;28;20244;-70
2022/07/20 00:44:22;;;;;;;1.37;1.27;;;;;;;22.29;50.55;100049.53;5113878;28;20191;-71
2022/07/20 00:46:54;;;;;;;1.60;1.50;;;;;;;22.05;50.90;100048.22;5112956;28;20570;-72
2022/07/20 00:49:21;;;;;;;2.57;1.67;;;;;;;22.02;51.46;100049.56;5112969;28;20628;-71
2022/07/20 00:51:48;;;;;;;1.80;1.70;;;;;;;22.09;51.76;100050.13;5112930;28;20190;-71
2022/07/20 00:54:15;;;;;;;2.10;1.70;;;;;;;22.09;52.04;100049.34;5113489;28;20290;-72
2022/07/20 00:56:42;;;;;;;7.63;1.80;;;;;;;22.08;51.83;100042.28;5112870;28;20689;-70
2022/07/20 00:59:10;;;;;;;1.87;1.73;;;;;;;22.12;51.36;100049.63;5113198;28;20190;-70
2022/07/20 01:01:39;;;;;;;7.50;1.80;;;;;;;21.84;51.58;100047.19;5113422;28;20228;-70
2022/07/20 01:04:07;;;;;;;1.27;1.27;;;;;;;21.63;52.20;100034.50;5113758;28;20213;-69
2022/07/20 01:06:34;;;;;;;1.83;1.73;;;;;;;21.71;51.79;100035.97;5113614;28;20202;-71
2022/07/20 01:09:00;;;;;;;1.70;1.53;;;;;;;21.73;51.68;100039.25;5113000;28;20251;-70
2022/07/20 01:11:27;;;;;;;1.93;1.50;;;;;;;21.77;51.66;100043.06;5112951;28;20191;-70
2022/07/20 01:14:01;;;;;;;3.37;1.70;;;;;;;21.75;51.85;100042.50;5113693;28;20224;-70
2022/07/20 01:16:28;;;;;;;1.70;1.53;;;;;;;21.64;52.22;100038.03;5113266;28;20186;-70
2022/07/20 01:18:54;;;;;;;2.30;1.63;;;;;;;21.63;52.36;100029.09;5113606;28;20619;-70
2022/07/20 01:21:23;;;;;;;3.43;1.60;;;;;;;21.66;52.26;100031.31;5113003;28;20317;-70
2022/07/20 01:23:50;;;;;;;2.60;2.10;;;;;;;21.68;52.46;100029.16;5112954;28;20662;-70
2022/07/20 01:26:17;;;;;;;3.53;2.03;;;;;;;21.70;52.46;100028.91;5112879;28;20247;-70
2022/07/20 01:28:44;;;;;;;2.40;2.10;;;;;;;21.71;52.73;100033.25;5112849;28;20285;-70
2022/07/20 01:31:11;;;;;;;2.17;1.90;;;;;;;21.72;52.95;100024.91;5113031;28;20282;-70
2022/07/20 01:33:38;;;;;;;5.80;2.30;;;;;;;21.70;53.33;100034.31;5113672;28;20199;-69
2022/07/20 01:36:05;;;;;;;3.63;2.10;;;;;;;21.67;53.61;100026.69;5113005;28;20186;-70
2022/07/20 01:38:33;;;;;;;2.33;2.23;;;;;;;21.55;54.24;100026.84;5112705;28;20655;-70
2022/07/20 01:41:00;;;;;;;2.43;2.17;;;;;;;21.48;54.46;100028.94;5113062;28;20248;-70
2022/07/20 01:43:27;;;;;;;2.23;2.13;;;;;;;21.44;55.03;100025.09;5112638;28;20620;-70
2022/07/20 01:45:53;;;;;;;5.30;2.60;;;;;;;21.36;55.03;100017.44;5112765;28;20255;-70
2022/07/20 01:48:20;;;;;;;3.23;2.30;;;;;;;21.28;55.38;100026.03;5113192;28;20308;-70
2022/07/20 01:50:47;;;;;;;4.20;1.90;;;;;;;21.14;56.02;100030.16;5112642;28;20245;-69
2022/07/20 01:53:14;;;;;;;3.83;2.50;;;;;;;20.98;56.86;100022.91;5112495;28;20623;-70
2022/07/20 01:55:42;;;;;;;2.33;2.20;;;;;;;20.95;57.35;100026.09;5112794;28;20194;-69
2022/07/20 01:58:08;;;;;;;4.97;2.00;;;;;;;21.36;57.20;100033.66;5112649;28;20194;-70
2022/07/20 02:00:35;;;;;;;5.17;2.30;;;;;;;21.66;55.48;100028.59;5112776;28;20195;-69
2022/07/20 02:03:02;;;;;;;5.63;2.53;;;;;;;21.81;55.07;100031.47;5112355;28;20662;-70
2022/07/20 02:05:29;;;;;;;3.50;2.30;;;;;;;21.99;53.71;100033.81;5113047;28;20195;-70
2022/07/20 02:07:55;;;;;;;4.47;2.17;;;;;;;22.18;53.54;100036.97;5112900;28;20194;-69
2022/07/20 02:10:22;;;;;;;2.87;2.50;;;;;;;22.39;52.70;100034.16;5112515;28;20268;-70
2022/07/20 02:12:50;;;;;;;4.33;2.10;;;;;;;22.53;51.92;100027.25;5112499;28;20239;-70
2022/07/20 02:17:58;;;;;;;4.80;2.40;;;;;;;22.97;50.71;100033.19;5111946;28;20199;-70
2022/07/20 02:20:24;;;;;;;4.80;2.37;;;;;;;23.15;49.36;100038.19;5112627;28;20216;-70
2022/07/20 02:22:51;;;;;;;4.40;2.40;;;;;;;23.16;49.00;100032.47;5117179;28;20191;-70
2022/07/20 02:25:18;;;;;;;3.07;1.90;;;;;;;23.04;49.44;100031.09;5116513;28;20196;-70
2022/07/20 02:27:45;;;;;;;3.63;2.00;;;;;;;22.86;50.51;100035.03;5116590;28;20195;-70
2022/07/20 02:30:14;;;;;;;3.63;2.40;;;;;;;22.79;49.93;100039.06;5116162;28;20760;-70
2022/07/20 02:32:41;;;;;;;4.10;2.53;;;;;;;22.69;50.39;100028.16;5116283;28;20190;-70
2022/07/20 02:35:08;;;;;;;3.30;2.07;;;;;;;22.39;50.85;100023.34;5115988;28;20191;-70
2022/07/20 02:37:35;;;;;;;2.50;2.30;;;;;;;21.94;52.47;100031.09;5116356;28;20191;-70
2022/07/20 02:40:02;;;;;;;2.77;2.10;;;;;;;21.84;53.23;100019.34;5116061;28;20608;-70
2022/07/20 02:42:29;;;;;;;3.23;2.47;;;;;;;21.77;53.08;100014.16;5116303;28;20187;-70
2022/07/20 02:44:55;;;;;;;2.90;2.20;;;;;;;21.85;53.27;100020.97;5116597;28;20187;-70
2022/07/20 02:47:24;;;;;;;4.57;1.90;;;;;;;21.79;53.80;100022.81;5115904;28;20702;-70
2022/07/20 02:49:50;;;;;;;9.90;2.97;;;;;;;21.79;53.21;100021.97;5116602;28;20222;-70
2022/07/20 02:52:17;;;;;;;3.40;2.40;;;;;;;21.91;52.67;100017.22;5116075;28;20630;-70
2022/07/20 02:54:44;;;;;;;3.37;2.17;;;;;;;21.93;53.07;100018.59;5115437;28;20195;-70
2022/07/20 02:57:11;;;;;;;5.53;1.90;;;;;;;21.98;52.78;100026.78;5115974;28;20191;-69
2022/07/20 02:59:37;;;;;;;3.33;2.03;;;;;;;22.01;51.51;100026.25;5115845;28;20627;-69
2022/07/20 03:02:04;;;;;;;2.40;2.03;;;;;;;22.13;51.66;100034.22;5115887;27;20247;-69
2022/07/20 03:04:32;;;;;;;2.23;2.13;;;;;;;22.15;51.40;100030.19;5115457;28;20194;-69
2022/07/20 03:06:59;;;;;;;4.97;2.30;;;;;;;22.29;51.28;100034.06;5115597;28;20263;-69
2022/07/20 03:09:25;;;;;;;3.33;2.10;;;;;;;22.23;51.18;100037.84;5115230;28;20194;-69
2022/07/20 03:11:52;;;;;;;1.93;1.60;;;;;;;22.33;50.46;100035.19;5115618;28;20282;-69
2022/07/20 03:14:19;;;;;;;2.00;1.90;;;;;;;22.49;49.50;100034.25;5115309;28;20256;-69
2022/07/20 03:16:48;;;;;;;3.93;1.90;;;;;;;22.45;49.78;100032.28;5115987;27;20251;-69
2022/07/20 03:19:15;;;;;;;2.33;2.13;;;;;;;22.54;49.55;100042.41;5115301;28;20730;-70
2022/07/20 03:21:43;;;;;;;2.57;2.10;;;;;;;22.84;48.86;100031.78;5115718;28;20267;-70
2022/07/20 03:24:09;;;;;;;1.73;1.50;;;;;;;22.86;48.18;100024.22;5115691;28;20196;-70
2022/07/20 03:26:36;;;;;;;2.00;1.90;;;;;;;22.76;48.74;100026.88;5115109;28;20683;-69
2022/07/20 03:29:03;;;;;;;4.40;1.87;;;;;;;22.72;49.05;100028.47;5115177;28;20248;-69
2022/07/20 03:31:30;;;;;;;2.03;1.90;;;;;;;22.90;48.95;100024.47;5115608;28;20295;-69
2022/07/20 03:33:56;;;;;;;2.33;2.13;;;;;;;23.19;48.06;100033.88;5114485;28;20192;-69
2022/07/20 03:36:23;;;;;;;2.53;2.10;;;;;;;23.33;47.79;100035.84;5115134;28;20200;-70
2022/07/20 03:38:51;;;;;;;2.20;1.67;;;;;;;23.48;47.28;100040.53;5114675;28;20618;-69
2022/07/20 03:41:18;;;;;;;2.73;1.70;;;;;;;23.62;46.91;100037.03;5115127;28;20198;-70
2022/07/20 03:43:45;;;;;;;2.30;2.10;;;;;;;23.81;46.23;100032.72;5114774;28;20203;-70
2022/07/20 03:46:15;;;;;;;5.23;2.47;;;;;;;23.95;45.83;100039.28;5114937;28;20285;-70
2022/07/20 03:48:41;;;;;;;3.43;2.00;;;;;;;24.03;45.59;100041.47;5115139;28;20719;-69
2022/07/20 03:51:08;;;;;;;2.53;1.73;;;;;;;24.05;45.31;100033.06;5114696;28;20229;-70
2022/07/20 03:53:35;;;;;;;2.27;2.17;;;;;;;23.97;45.94;100042.53;5114657;28;20201;-70
2022/07/20 03:56:04;;;;;;;2.17;2.07;;;;;;;23.94;45.73;100043.06;5114428;28;20193;-70
2022/07/20 03:58:30;;;;;;;5.93;2.20;;;;;;;24.02;45.49;100042.53;5114743;27;20200;-70
2022/07/20 04:00:57;;;;;;;4.43;2.27;;;;;;;24.23;45.07;100041.50;5113982;28;20193;-71
2022/07/20 04:03:24;;;;;;;2.10;2.00;;;;;;;24.39;44.51;100040.38;5114249;28;20194;-71
2022/07/20 04:05:50;;;;;;;4.03;2.23;;;;;;;24.34;44.46;100048.53;5114248;28;20680;-71
2022/07/20 04:08:17;;;;;;;4.50;1.97;;;;;;;24.28;44.71;100056.94;5114104;28;20194;-71
2022/07/20 04:10:44;;;;;;;2.70;2.10;;;;;;;24.64;43.95;100058.59;5114065;28;20289;-71
2022/07/20 04:13:12;;;;;;;2.53;2.00;;;;;;;25.22;42.51;100044.31;5113764;28;20198;-70
2022/07/20 04:15:39;;;;;;;4.37;2.07;;;;;;;26.09;40.81;100051.78;5113854;28;20738;-71
2022/07/20 04:18:05;;;;;;;3.77;2.20;;;;;;;26.92;38.88;100062.25;5113824;28;20248;-70
2022/07/20 04:20:32;;;;;;;5.47;2.10;;;;;;;27.79;36.42;100063.63;5114211;28;20626;-70
2022/07/20 04:22:59;;;;;;;4.27;2.37;;;;;;;28.55;35.07;100072.34;5113460;28;20549;-71
2022/07/20 04:25:26;;;;;;;2.20;2.00;;;;;;;29.12;33.90;100060.91;5114346;28;20198;-70
2022/07/20 04:27:52;;;;;;;3.83;2.20;;;;;;;29.36;33.27;100072.47;5113876;28;20199;-71
2022/07/20 04:30:21;;;;;;;2.70;1.90;;;;;;;29.53;32.66;100074.56;5112985;28;20214;-70
2022/07/20 04:32:47;;;;;;;2.67;2.00;;;;;;;30.06;32.11;100075.59;5113387;28;20616;-71
2022/07/20 04:35:14;;;;;;;2.17;1.93;;;;;;;30.45;31.01;100068.34;5113704;28;20198;-71
2022/07/20 04:37:41;;;;;;;4.60;2.50;;;;;;;30.88;30.74;100065.91;5113113;28;20717;-71
2022/07/20 04:40:09;;;;;;;4.27;2.10;;;;;;;31.07;30.85;100075.50;5113604;28;20194;-71
2022/07/20 04:42:35;;;;;;;3.63;2.47;;;;;;;31.24;30.48;100081.09;5112779;28;20202;-72
2022/07/20 04:45:02;;;;;;;3.13;2.27;;;;;;;31.56;29.79;100077.19;5113645;28;20194;-70
2022/07/20 04:47:31;;;;;;;2.33;2.23;;;;;;;31.97;29.59;100072.09;5113145;28;20229;-70
2022/07/20 04:49:57;;;;;;;4.23;2.20;;;;;;;32.00;29.45;100072.25;5112674;28;20626;-70
2022/07/20 04:52:24;;;;;;;2.07;1.90;;;;;;;32.43;28.68;100075.00;5113161;28;20279;-70
2022/07/20 04:54:51;;;;;;;6.23;2.20;;;;;;;32.01;29.05;100081.31;5112998;28;20190;-70
2022/07/20 04:57:18;;;;;;;7.87;2.13;;;;;;;32.46;28.23;100086.16;5113213;28;20194;-70
2022/07/20 04:59:44;;;;;;;4.57;2.13;;;;;;;32.48;28.12;100080.34;5112694;28;20202;-69
2022/07/20 05:02:11;;;;;;;2.77;2.40;;;;;;;33.17;27.72;100070.78;5113258;28;20198;-69
2022/07/20 05:04:39;;;;;;;3.63;2.00;;;;;;;33.49;27.11;100064.66;5113651;28;20331;-69
2022/07/20 05:07:06;;;;;;;5.50;2.37;;;;;;;32.86;28.05;100065.56;5112525;28;20662;-69
2022/07/20 05:09:33;;;;;;;7.57;2.17;;;;;;;33.28;27.33;100070.06;5113174;28;20239;-70
2022/07/20 05:12:00;;;;;;;14.10;2.60;;;;;;;33.69;27.03;100074.09;5112422;28;20223;-69
2022/07/20 05:14:26;;;;;;;5.37;2.47;;;;;;;33.60;27.15;100076.09;5112923;28;20710;-70
2022/07/20 05:16:53;;;;;;;4.70;2.00;;;;;;;33.89;26.56;100076.09;5112806;28;20654;-70
2022/07/20 05:19:20;;;;;;;8.43;2.23;;;;;;;33.77;26.74;100074.03;5112364;28;20244;-69
2022/07/20 05:21:48;;;;;;;6.53;1.90;;;;;;;33.51;26.98;100065.09;5112826;28;20247;-69
2022/07/20 05:24:15;;;;;;;4.03;1.90;;;;;;;33.58;27.13;100072.84;5112500;28;20662;-69
2022/07/20 05:26:42;;;;;;;7.43;2.40;;;;;;;33.61;26.88;100075.75;5113009;28;20199;-69
2022/07/20 05:29:08;;;;;;;6.23;2.57;;;;;;;33.85;26.53;100078.72;5112804;28;20195;-69
2022/07/20 05:31:35;;;;;;;11.47;2.77;;;;;;;33.95;26.75;100071.97;5110904;28;20219;-71
2022/07/20 05:34:02;;;;;;;7.50;2.20;;;;;;;33.94;26.49;100078.63;5110273;28;20277;-69
2022/07/20 05:36:29;;;;;;;3.87;2.30;;;;;;;33.57;26.90;100076.75;5112489;28;20220;-69
2022/07/20 05:38:57;;;;;;;6.13;2.37;;;;;;;33.47;26.77;100074.41;5111469;28;20191;-69
2022/07/20 05:41:23;;;;;;;15.90;2.83;;;;;;;33.41;27.02;100083.97;5111886;28;20194;-68
2022/07/20 05:43:50;;;;;;;3.77;2.10;;;;;;;33.36;27.17;100081.41;5112009;28;20183;-70
2022/07/20 05:46:17;;;;;;;6.60;2.00;;;;;;;33.23;27.14;100080.44;5112471;28;20244;-69
2022/07/20 05:48:44;;;;;;;11.53;1.70;;;;;;;33.28;27.73;100086.59;5112038;28;20226;-68
2022/07/20 05:51:10;;;;;;;7.60;2.20;;;;;;;33.24;27.53;100087.59;5112023;28;20697;-68
2022/07/20 05:53:37;;;;;;;2.53;1.73;;;;;;;33.16;27.69;100080.97;5111778;28;20194;-70
2022/07/20 05:56:07;;;;;;;4.63;1.90;;;;;;;33.02;27.84;100069.38;5111461;28;20191;-70
2022/07/20 05:58:33;;;;;;;4.97;1.93;;;;;;;33.12;27.68;100074.50;5111708;28;20662;-69
2022/07/20 06:01:00;;;;;;;1.97;1.87;;;;;;;33.36;27.72;100073.16;5112155;28;20202;-69
2022/07/20 06:03:27;;;;;;;6.03;1.80;;;;;;;33.40;27.51;100068.59;5111722;28;20199;-69
2022/07/20 06:05:53;;;;;;;3.17;1.70;;;;;;;33.60;27.27;100076.88;5111738;28;20187;-68
2022/07/20 06:08:20;;;;;;;3.53;1.87;;;;;;;33.40;27.29;100065.84;5112060;28;20202;-69
2022/07/20 06:10:47;;;;;;;1.97;1.77;;;;;;;33.50;27.52;100068.19;5111794;28;20300;-68
2022/07/20 06:13:15;;;;;;;3.53;1.70;;;;;;;33.94;26.36;100070.38;5111040;28;20614;-67
2022/07/20 06:15:42;;;;;;;4.47;1.53;;;;;;;34.06;26.36;100062.16;5112095;28;20190;-69
2022/07/20 06:18:09;;;;;;;5.05;2.00;;;;;;;34.31;25.96;100080.47;5112175;28;20193;-68
2022/07/20 06:20:36;;;;;;;3.63;1.48;;;;;;;34.38;26.22;100070.50;5111939;28;20195;-69
2022/07/20 06:23:03;;;;;;;4.13;1.50;;;;;;;34.09;26.41;100073.31;5111576;28;20636;-69
2022/07/20 06:25:30;;;;;;;1.80;1.70;;;;;;;34.17;26.40;100068.88;5106737;28;20190;-73
2022/07/20 06:27:58;;;;;;;3.13;2.08;;;;;;;34.42;25.70;100073.38;5111859;28;20191;-76
2022/07/20 06:30:26;;;;;;;5.65;1.58;;;;;;;34.50;26.01;100078.03;5111194;28;20672;-68
2022/07/20 06:32:53;;;;;;;6.90;2.00;;;;;;;34.59;25.88;100082.31;5110402;28;20218;-67
2022/07/20 06:35:21;;;;;;;6.40;1.80;;;;;;;34.74;25.87;100078.88;5111345;28;20199;-68
2022/07/20 06:37:48;;;;;;;6.57;2.13;;;;;;;34.66;25.94;100077.03;5108947;28;20191;-73
2022/07/20 06:40:15;;;;;;;4.05;1.90;;;;;;;34.74;25.66;100078.88;5106957;28;20982;-68
2022/07/20 06:42:42;;;;;;;7.82;2.25;;;;;;;34.82;25.69;100071.72;5109978;28;20613;-71
2022/07/20 06:45:09;;;;;;;5.93;1.70;;;;;;;34.90;25.84;100076.31;5107238;28;20263;-67
2022/07/20 06:47:37;;;;;;;5.72;1.90;;;;;;;34.99;25.45;100072.28;5108904;28;20317;-68
2022/07/20 06:50:04;;;;;;;11.35;2.05;;;;;;;35.01;25.11;100077.47;5109238;28;20194;-69
2022/07/20 06:52:31;;;;;;;3.00;1.48;;;;;;;34.72;25.32;100069.34;5107450;28;20309;-67
2022/07/20 06:54:58;;;;;;;3.97;2.05;;;;;;;34.28;25.64;100064.53;5106591;28;20243;-66
2022/07/20 06:57:25;;;;;;;5.18;1.77;;;;;;;34.31;25.90;100058.38;5109650;28;20252;-66
2022/07/20 06:59:52;;;;;;;3.88;1.90;;;;;;;34.31;25.90;100070.25;5111354;28;20248;-66
2022/07/20 07:02:19;;;;;;;3.53;1.90;;;;;;;34.27;25.98;100061.00;5111410;28;20202;-66
2022/07/20 07:04:48;;;;;;;8.00;2.30;;;;;;;34.26;25.28;100061.34;5109819;28;20658;-67
2022/07/20 07:07:14;;;;;;;12.43;2.72;;;;;;;34.50;25.59;100053.19;5110705;28;20308;-66
2022/07/20 07:09:41;;;;;;;2.08;1.52;;;;;;;34.39;25.18;100054.75;5114539;28;20551;-65
2022/07/20 07:12:09;;;;;;;5.40;2.65;;;;;;;34.19;25.74;100055.53;5114732;28;20870;-66
2022/07/20 07:14:36;;;;;;;5.10;1.92;;;;;;;34.09;25.82;100050.47;5115165;28;20191;-67
2022/07/20 07:17:02;;;;;;;3.13;1.67;;;;;;;33.98;26.41;100057.53;5115269;28;20190;-67
2022/07/20 07:19:29;;;;;;;6.25;1.48;;;;;;;34.28;25.96;100050.75;5115220;28;20251;-66
2022/07/20 07:21:57;;;;;;;3.17;2.40;;;;;;;34.55;25.40;100053.78;5114846;28;20666;-67
2022/07/20 07:24:25;;;;;;;2.13;1.58;;;;;;;34.66;25.60;100049.41;5114661;28;20195;-66
2022/07/20 07:26:52;;;;;;;8.90;2.08;;;;;;;34.55;25.59;100051.00;5114911;28;20197;-66
2022/07/20 07:29:19;;;;;;;4.15;1.85;;;;;;;34.20;25.97;100046.94;5114972;28;20247;-66
2022/07/20 07:31:46;;;;;;;3.45;1.73;;;;;;;34.17;26.01;100044.06;5114973;28;20218;-66
2022/07/20 07:34:13;;;;;;;6.13;1.83;;;;;;;34.03;26.10;100038.00;5114137;28;20267;-68
2022/07/20 07:36:40;;;;;;;4.50;1.30;;;;;;;34.26;26.16;100033.75;5113019;28;20193;-69
2022/07/20 07:39:08;;;;;;;2.25;1.52;;;;;;;34.64;25.91;100039.88;5112880;28;20186;-69
2022/07/20 07:41:35;;;;;;;10.10;1.90;;;;;;;34.90;25.47;100037.66;5117162;27;20197;-67
2022/07/20 07:44:01;;;;;;;4.68;1.55;;;;;;;34.95;25.17;100042.94;5135216;27;20554;-66
2022/07/20 07:46:28;;;;;;;4.90;1.60;;;;;;;34.80;24.70;100043.63;5135452;27;20640;-66
2022/07/20 07:48:55;;;;;;;4.07;1.35;;;;;;;34.87;25.09;100033.59;5135049;27;20668;-66
2022/07/20 07:51:22;;;;;;;1.77;1.63;;;;;;;35.13;25.03;100041.56;5135004;27;20316;-66
2022/07/20 07:53:48;;;;;;;3.97;1.52;;;;;;;35.30;24.69;100036.66;5135231;27;20201;-67
2022/07/20 07:56:17;;;;;;;4.32;1.45;;;;;;;35.55;23.89;100043.78;5135795;27;20193;-66
2022/07/20 07:58:44;;;;;;;6.57;1.98;;;;;;;35.60;24.27;100040.75;5134761;27;20289;-66
2022/07/20 08:01:10;;;;;;;3.50;1.52;;;;;;;35.53;23.55;100031.44;5135436;27;20575;-67
2022/07/20 08:03:37;;;;;;;3.47;1.30;;;;;;;35.61;24.21;100039.63;5134942;27;20194;-66
2022/07/20 08:06:05;;;;;;;1.42;1.30;;;;;;;35.66;24.19;100036.63;5135714;27;20223;-67
2022/07/20 08:08:32;;;;;;;2.20;1.10;;;;;;;35.83;23.84;100021.72;5134672;27;20225;-68
2022/07/20 08:10:59;;;;;;;1.25;1.10;;;;;;;35.83;23.88;100021.72;5135894;27;20193;-67
2022/07/20 08:13:28;;;;;;;4.47;1.35;;;;;;;35.85;23.57;100020.22;5135011;27;20210;-67
2022/07/20 08:15:55;;;;;;;1.20;1.17;;;;;;;35.98;22.90;100023.75;5134461;27;20729;-67
2022/07/20 08:18:22;;;;;;;3.90;1.20;;;;;;;35.87;22.86;100017.09;5134762;27;20186;-67
2022/07/20 08:20:48;;;;;;;1.73;1.20;;;;;;;35.91;22.48;100015.25;5134732;27;20238;-67
2022/07/20 08:23:15;;;;;;;3.38;1.35;;;;;;;36.14;22.06;100019.88;5134394;27;20737;-66
2022/07/20 08:25:42;;;;;;;1.50;1.40;;;;;;;36.13;22.08;100017.50;5134475;27;20262;-66
2022/07/20 08:28:11;;;;;;;2.67;1.50;;;;;;;36.31;22.68;100016.03;5134969;27;20205;-66
2022/07/20 08:30:40;;;;;;;4.80;1.42;;;;;;;36.25;21.85;100011.94;5134251;27;20285;-66
2022/07/20 08:33:07;;;;;;;6.03;3.05;;;;;;;35.81;21.67;100013.00;5134135;27;20217;-66
2022/07/20 08:35:34;;;;;;;3.50;1.60;;;;;;;35.91;21.48;100007.78;5134222;27;20657;-66
2022/07/20 08:38:01;;;;;;;2.35;1.88;;;;;;;36.05;22.34;100001.84;5134513;27;20246;-66
2022/07/20 08:40:29;;;;;;;2.55;1.60;;;;;;;35.98;22.36;100007.16;5127247;27;20187;-66
2022/07/20 08:42:55;;;;;;;1.95;1.40;;;;;;;36.08;22.77;100001.94;5114209;28;20194;-66
2022/07/20 08:45:22;;;;;;;1.42;1.33;;;;;;;35.98;22.60;100007.16;5113382;28;20190;-66
2022/07/20 08:47:52;;;;;;;3.40;1.50;;;;;;;36.19;21.58;100005.00;5113992;28;20295;-66
2022/07/20 08:50:22;;;;;;;4.90;1.40;;;;;;;36.27;20.70;100004.06;5113232;28;20187;-67
2022/07/20 08:52:50;;;;;;;2.75;1.40;;;;;;;35.93;21.51;99999.13;5113772;28;20284;-66
2022/07/20 08:55:17;;;;;;;2.25;1.60;;;;;;;36.00;21.16;99991.00;5113223;28;20205;-67
2022/07/20 08:57:44;;;;;;;2.03;1.40;;;;;;;36.16;20.62;99997.41;5113882;28;20240;-67
2022/07/20 09:00:11;;;;;;;12.52;2.50;;;;;;;36.31;19.59;99989.19;5113830;28;20194;-67
2022/07/20 09:02:54;;;;;;;2.80;1.67;;;;;;;35.90;20.46;99989.56;5113343;28;20200;-67
2022/07/20 09:05:21;;;;;;;1.63;1.42;;;;;;;35.80;20.57;99990.03;5113332;27;20190;-67
2022/07/20 09:07:50;;;;;;;4.45;1.50;;;;;;;35.53;20.86;99978.94;5112974;28;20194;-67
2022/07/20 09:10:19;;;;;;;3.88;1.33;;;;;;;35.52;20.71;99982.84;5112590;28;20202;-66
2022/07/20 09:12:59;;;;;;;5.35;1.60;;;;;;;35.37;20.47;99976.09;5113118;28;20218;-66
2022/07/20 09:15:28;;;;;;;2.70;1.20;;;;;;;34.73;20.99;99977.88;5112879;28;20190;-66
2022/07/20 09:18:08;;;;;;;3.70;1.42;;;;;;;35.06;21.07;99970.31;5110864;28;20198;-65
2022/07/20 09:20:36;;;;;;;2.55;1.23;;;;;;;34.95;20.59;99971.16;5112508;28;20189;-66
2022/07/20 09:23:06;;;;;;;6.35;1.48;;;;;;;35.04;21.08;99977.34;5112762;28;20198;-66
2022/07/20 09:25:33;;;;;;;1.88;1.40;;;;;;;35.16;20.78;99969.06;5112738;28;20198;-66
2022/07/20 09:28:00;;;;;;;1.67;1.58;;;;;;;34.29;21.66;99972.38;5112971;27;20270;-67
2022/07/20 09:30:27;;;;;;;2.15;1.27;;;;;;;33.99;21.68;99957.09;5111891;28;20198;-67
2022/07/20 09:32:58;;;;;;;2.25;1.33;;;;;;;33.67;22.27;99960.63;5111486;28;20218;-70
2022/07/20 09:35:30;;;;;;;3.75;1.30;;;;;;;34.16;22.03;99957.72;5108314;28;20186;-70
2022/07/20 09:37:59;;;;;;;1.60;1.30;;;;;;;34.54;21.45;99952.00;5110238;28;20627;-67
2022/07/20 09:40:26;;;;;;;3.53;1.25;;;;;;;34.32;22.53;99952.38;5107708;28;20670;-70
2022/07/20 09:42:53;;;;;;;3.70;1.58;;;;;;;33.69;22.72;99959.13;5111009;28;20194;-69
2022/07/20 09:45:26;;;;;;;3.90;1.30;;;;;;;33.81;22.53;99942.66;5112237;28;20194;-68
2022/07/20 09:48:04;;;;;;;1.98;1.30;;;;;;;33.19;22.93;99934.34;5110769;28;20282;-75
2022/07/20 09:50:34;;;;;;;5.93;1.50;;;;;;;33.47;22.47;99933.88;5110961;28;20202;-82
2022/07/20 09:53:02;;;;;;;2.45;1.33;;;;;;;34.05;22.67;99944.72;5107643;28;20206;-69
2022/07/20 09:55:30;;;;;;;5.80;1.60;;;;;;;33.74;23.01;99927.78;5108959;28;20195;-67
2022/07/20 09:57:57;;;;;;;2.40;1.60;;;;;;;33.67;23.05;99933.84;5107466;28;20194;-70
2022/07/20 10:00:24;;;;;;;2.95;1.20;;;;;;;34.12;22.07;99944.97;5105078;28;20251;-67
2022/07/20 10:02:54;;;;;;;1.88;1.13;;;;;;;33.82;22.14;99932.44;5108646;28;20198;-72
2022/07/20 10:05:22;;;;;;;4.07;1.38;;;;;;;34.14;21.93;99929.69;5109361;28;20700;-67
2022/07/20 10:07:51;;;;;;;2.20;1.40;;;;;;;34.54;21.74;99930.69;5111060;28;20187;-75
2022/07/20 10:10:18;;;;;;;2.45;1.20;;;;;;;34.72;21.20;99920.25;5109098;28;20198;-66
2022/07/20 10:12:45;;;;;;;3.63;1.40;;;;;;;34.49;21.85;99919.09;5111695;28;20270;-66
2022/07/20 10:15:15;;;;;;;4.10;1.40;;;;;;;34.73;21.44;99921.84;5111965;28;20186;-67
2022/07/20 10:17:43;;;;;;;3.92;1.25;;;;;;;34.86;21.68;99915.22;5109195;28;20182;-73
2022/07/20 10:20:32;;;;;;;2.58;1.30;;;;;;;34.98;21.51;99917.97;5104640;28;20599;-73
2022/07/20 10:23:28;;;;;;;1.40;1.30;;;;;;;34.79;21.58;99909.44;5109481;28;20511;-68
2022/07/20 10:25:56;;;;;;;1.83;1.38;;;;;;;35.12;21.25;99902.66;5099833;28;20616;-69
2022/07/20 10:28:41;;;;;;;7.53;1.60;;;;;;;35.11;21.71;99900.22;5110432;28;20198;-67
2022/07/20 10:31:16;;;;;;;7.35;1.50;;;;;;;34.71;22.08;99893.78;5109059;28;20266;-66
2022/07/20 10:33:44;;;;;;;2.72;1.40;;;;;;;34.78;22.42;99891.28;5112474;28;20267;-68
2022/07/20 10:38:59;;;;;;;4.38;1.42;;;;;;;34.83;21.66;99891.84;5111502;28;20194;-70
2022/07/20 10:41:36;;;;;;;3.60;1.63;;;;;;;34.79;21.73;99888.16;5110668;28;20591;-67
2022/07/20 10:44:28;;;;;;;3.67;1.70;;;;;;;34.74;21.63;99882.84;5115443;28;20673;-70
2022/07/20 10:46:55;;;;;;;4.50;1.15;;;;;;;34.76;21.69;99882.50;5115074;28;20309;-69
2022/07/20 10:49:59;;;;;;;4.38;1.30;;;;;;;35.02;21.62;99877.47;5115295;28;20195;-69
2022/07/20 10:52:27;;;;;;;3.15;1.20;;;;;;;35.03;21.66;99873.53;5115230;28;20210;-68
2022/07/20 10:54:55;;;;;;;1.90;1.42;;;;;;;35.17;21.82;99871.19;5113973;28;20244;-68
2022/07/20 10:57:22;;;;;;;2.47;1.40;;;;;;;35.22;21.38;99869.00;5114647;28;20194;-69
2022/07/20 11:00:01;;;;;;;2.03;1.38;;;;;;;35.18;21.58;99872.81;5115233;28;20210;-69
2022/07/20 11:02:27;;;;;;;1.95;1.52;;;;;;;34.24;23.29;99863.03;5115136;28;20239;-69
2022/07/20 11:04:54;;;;;;;1.73;1.50;;;;;;;34.37;22.52;99864.69;5115064;28;20589;-69
2022/07/20 11:07:28;;;;;;;2.33;1.55;;;;;;;34.70;22.21;99857.09;5114670;28;20262;-68
2022/07/20 11:09:56;;;;;;;5.13;1.30;;;;;;;34.93;21.64;99862.97;5112848;28;20276;-68
2022/07/20 11:12:27;;;;;;;4.63;1.80;;;;;;;35.09;21.78;99855.56;5101669;28;20227;-69
2022/07/20 11:14:54;;;;;;;4.72;1.42;;;;;;;35.07;21.41;99853.16;5092574;28;20274;-67
2022/07/20 11:17:21;;;;;;;3.15;1.42;;;;;;;34.82;21.95;99853.56;5092061;28;20187;-70
2022/07/20 11:19:48;;;;;;;2.50;1.50;;;;;;;34.39;22.12;99839.50;5093953;28;20199;-68
2022/07/20 11:22:16;;;;;;;1.55;1.45;;;;;;;33.23;23.66;99833.38;5094339;28;20607;-68
2022/07/20 11:24:43;;;;;;;4.75;1.25;;;;;;;33.61;24.17;99830.47;5093297;28;20732;-68
2022/07/20 11:27:15;;;;;;;3.90;1.80;;;;;;;33.86;23.32;99823.09;5091139;28;20184;-70
2022/07/20 11:29:46;;;;;;;2.90;1.40;;;;;;;34.08;23.38;99826.22;5107352;28;20584;-68
2022/07/20 11:32:13;;;;;;;4.70;1.40;;;;;;;34.33;22.89;99829.88;5112823;28;20199;-68
2022/07/20 11:34:44;;;;;;;3.95;1.73;;;;;;;34.44;22.97;99831.00;5112830;28;20658;-68
2022/07/20 11:37:11;;;;;;;4.32;1.40;;;;;;;34.23;22.66;99831.09;5113561;28;20187;-68